createdAt,value
2023-07-29T00:00:27.004Z,260.43
2023-07-29T00:01:26.919Z,260.85
2023-07-29T00:02:27.911Z,260.64
2023-07-29T00:03:26.960Z,260.02
2023-07-29T00:04:26.883Z,260.23
2023-07-29T00:05:26.926Z,259.61
2023-07-29T00:06:26.872Z,260.85
2023-07-29T00:07:27.816Z,259.61
2023-07-29T00:08:26.800Z,259.82
2023-07-29T00:09:26.792Z,259.41
2023-07-29T00:10:26.908Z,260.23
2023-07-29T00:11:26.804Z,259.61
2023-07-29T00:12:27.748Z,260.43
2023-07-29T00:13:26.750Z,259.82
2023-07-29T00:14:26.748Z,260.64
2023-07-29T00:15:26.732Z,259.20
2023-07-29T00:16:26.789Z,259.82
2023-07-29T00:17:26.733Z,260.43
2023-07-29T00:18:27.664Z,260.85
2023-07-29T00:19:26.676Z,260.02
2023-07-29T00:20:26.693Z,260.43
2023-07-29T00:21:26.651Z,259.41
2023-07-29T00:22:26.693Z,260.23
2023-07-29T00:26:19.558Z,511.72
2023-07-29T00:27:19.520Z,424.97
2023-07-29T00:28:22.256Z,381.60
2023-07-29T00:29:19.525Z,354.67
2023-07-29T00:30:20.511Z,335.18
2023-07-29T00:31:19.516Z,323.65
2023-07-29T00:32:19.442Z,311.70
2023-07-29T00:33:19.553Z,307.05
2023-07-29T00:34:19.409Z,299.51
2023-07-29T00:35:19.362Z,294.69
2023-07-29T00:36:19.395Z,290.53
2023-07-29T00:37:19.348Z,287.49
2023-07-29T00:38:19.351Z,284.75
2023-07-29T00:39:19.323Z,283.53
2023-07-29T00:40:19.439Z,279.91
2023-07-29T00:41:20.276Z,278.26
2023-07-29T00:42:19.291Z,275.92
2023-07-29T00:43:19.337Z,276.39
2023-07-29T00:44:19.272Z,273.63
2023-07-29T00:45:19.257Z,273.40
2023-07-29T00:46:20.351Z,272.50
2023-07-29T00:47:19.237Z,272.27
2023-07-29T00:48:19.328Z,272.27
2023-07-29T00:49:19.206Z,271.15
2023-07-29T00:50:19.228Z,271.83
2023-07-29T00:51:19.182Z,270.49
2023-07-29T00:52:20.138Z,268.72
2023-07-29T00:53:19.190Z,270.26
2023-07-29T00:54:19.177Z,270.04
2023-07-29T00:55:19.143Z,270.04
2023-07-29T00:56:19.211Z,268.28
2023-07-29T00:57:19.505Z,267.85
2023-07-29T00:58:25.342Z,268.50
2023-07-29T00:59:19.094Z,267.41
2023-07-29T01:00:19.071Z,268.94
2023-07-29T01:01:19.086Z,268.94
2023-07-29T01:02:19.117Z,269.60
2023-07-29T01:03:19.161Z,268.72
2023-07-29T01:04:20.089Z,268.72
2023-07-29T01:05:19.031Z,266.98
2023-07-29T01:06:19.028Z,267.85
2023-07-29T01:07:19.197Z,268.06
2023-07-29T01:08:18.988Z,268.28
2023-07-29T01:09:19.913Z,268.50
2023-07-29T01:10:19.154Z,268.72
2023-07-29T01:11:18.941Z,266.98
2023-07-29T01:12:18.943Z,265.69
2023-07-29T01:13:18.940Z,268.28
2023-07-29T01:14:18.884Z,268.06
2023-07-29T01:15:20.809Z,267.85
2023-07-29T01:16:18.953Z,267.41
2023-07-29T01:17:18.817Z,266.55
2023-07-29T01:18:18.867Z,265.69
2023-07-29T01:19:18.812Z,266.98
2023-07-29T01:20:19.732Z,265.26
2023-07-29T01:21:18.838Z,266.98
2023-07-29T01:22:18.771Z,265.26
2023-07-29T01:23:18.878Z,266.76
2023-07-29T01:24:18.749Z,266.98
2023-07-29T01:25:19.748Z,265.90
2023-07-29T01:26:18.747Z,265.69
2023-07-29T01:27:18.702Z,266.76
2023-07-29T01:28:18.802Z,265.90
2023-07-29T01:29:18.706Z,265.69
2023-07-29T01:30:19.663Z,265.69
2023-07-29T01:31:18.709Z,264.41
2023-07-29T01:32:18.647Z,264.83
2023-07-29T01:33:18.617Z,263.98
2023-07-29T01:34:18.670Z,264.41
2023-07-29T01:35:18.615Z,265.47
2023-07-29T01:36:19.549Z,265.90
2023-07-29T01:37:18.585Z,264.62
2023-07-29T01:38:18.843Z,263.14
2023-07-29T01:39:18.540Z,264.19
2023-07-29T01:40:18.550Z,264.62
2023-07-29T01:41:18.641Z,263.14
2023-07-29T01:42:19.453Z,264.83
2023-07-29T01:43:18.563Z,263.77
2023-07-29T01:44:18.500Z,264.83
2023-07-29T01:45:18.445Z,263.77
2023-07-29T01:46:18.508Z,262.72
2023-07-29T01:47:18.495Z,265.47
2023-07-29T01:48:19.402Z,263.98
2023-07-29T01:49:18.444Z,263.98
2023-07-29T01:50:18.425Z,263.56
2023-07-29T01:51:18.396Z,263.56
2023-07-29T01:52:18.460Z,263.14
2023-07-29T01:53:18.361Z,265.26
2023-07-29T01:54:19.301Z,265.26
2023-07-29T01:55:18.469Z,264.62
2023-07-29T01:56:18.318Z,263.56
2023-07-29T01:57:18.323Z,265.26
2023-07-29T01:58:18.333Z,263.56
2023-07-29T01:59:19.225Z,265.26
2023-07-29T02:00:18.314Z,263.14
2023-07-29T02:01:18.378Z,264.83
2023-07-29T02:02:18.303Z,264.62
2023-07-29T02:03:18.308Z,264.83
2023-07-29T02:04:19.194Z,262.30
2023-07-29T02:05:18.287Z,262.72
2023-07-29T02:06:18.239Z,263.14
2023-07-29T02:07:18.208Z,264.41
2023-07-29T02:08:18.285Z,264.19
2023-07-29T02:09:18.290Z,263.56
2023-07-29T02:10:19.086Z,264.41
2023-07-29T02:11:18.152Z,264.41
2023-07-29T02:12:18.146Z,264.41
2023-07-29T02:13:18.104Z,262.72
2023-07-29T02:14:18.162Z,263.14
2023-07-29T02:15:18.108Z,263.98
2023-07-29T02:16:24.397Z,264.41
2023-07-29T02:17:18.081Z,263.98
2023-07-29T02:18:18.076Z,263.56
2023-07-29T02:19:18.077Z,264.41
2023-07-29T02:20:18.036Z,262.51
2023-07-29T02:21:18.011Z,263.98
2023-07-29T02:22:24.300Z,264.19
2023-07-29T02:23:18.063Z,265.47
2023-07-29T02:24:17.966Z,264.19
2023-07-29T02:25:18.043Z,264.19
2023-07-29T02:26:18.035Z,264.19
2023-07-29T02:27:24.227Z,262.93
2023-07-29T02:28:17.993Z,264.41
2023-07-29T02:29:17.935Z,263.35
2023-07-29T02:30:17.901Z,264.62
2023-07-29T02:31:18.232Z,264.62
2023-07-29T02:32:17.883Z,264.19
2023-07-29T02:33:24.292Z,264.41
2023-07-29T02:34:17.839Z,262.72
2023-07-29T02:35:17.839Z,264.41
2023-07-29T02:36:17.906Z,262.72
2023-07-29T02:37:17.836Z,263.77
2023-07-29T02:38:18.833Z,264.62
2023-07-29T02:39:17.782Z,264.62
2023-07-29T02:40:17.828Z,262.72
2023-07-29T02:41:17.861Z,263.98
2023-07-29T02:42:17.790Z,264.41
2023-07-29T02:43:17.821Z,262.51
2023-07-29T02:44:18.688Z,262.93
2023-07-29T02:45:17.693Z,264.62
2023-07-29T02:46:17.694Z,265.04
2023-07-29T02:47:17.712Z,263.35
2023-07-29T02:48:17.659Z,264.62
2023-07-29T02:49:17.738Z,263.14
2023-07-29T02:50:18.581Z,263.56
2023-07-29T02:51:17.640Z,264.19
2023-07-29T02:52:17.618Z,264.83
2023-07-29T02:53:18.314Z,263.77
2023-07-29T02:54:17.732Z,264.83
2023-07-29T02:55:18.613Z,264.19
2023-07-29T02:56:17.554Z,265.04
2023-07-29T02:57:17.534Z,262.93
2023-07-29T02:58:17.646Z,262.93
2023-07-29T02:59:17.530Z,264.41
2023-07-29T03:00:17.524Z,264.41
2023-07-29T03:01:18.522Z,264.41
2023-07-29T03:02:17.568Z,263.14
2023-07-29T03:03:17.635Z,264.62
2023-07-29T03:04:17.482Z,263.98
2023-07-29T03:05:17.476Z,263.98
2023-07-29T03:06:18.462Z,264.41
2023-07-29T03:07:17.448Z,263.98
2023-07-29T03:08:17.423Z,265.26
2023-07-29T03:09:17.562Z,263.77
2023-07-29T03:10:17.377Z,265.26
2023-07-29T03:11:18.304Z,264.83
2023-07-29T03:12:17.422Z,265.69
2023-07-29T03:13:17.373Z,263.56
2023-07-29T03:14:17.325Z,265.26
2023-07-29T03:15:17.341Z,265.69
2023-07-29T03:16:17.351Z,265.47
2023-07-29T03:17:18.249Z,264.19
2023-07-29T03:18:17.325Z,264.83
2023-07-29T03:19:17.286Z,264.62
2023-07-29T03:20:17.264Z,265.04
2023-07-29T03:21:17.238Z,265.26
2023-07-29T03:22:18.128Z,263.98
2023-07-29T03:23:17.216Z,265.26
2023-07-29T03:24:17.192Z,265.26
2023-07-29T03:25:17.178Z,265.04
2023-07-29T03:26:17.173Z,263.56
2023-07-29T03:27:17.161Z,264.41
2023-07-29T03:28:18.144Z,264.83
2023-07-29T03:29:17.138Z,263.35
2023-07-29T03:30:17.111Z,264.41
2023-07-29T03:31:17.228Z,264.83
2023-07-29T03:32:17.186Z,265.26
2023-07-29T03:33:17.079Z,263.14
2023-07-29T03:34:18.030Z,263.14
2023-07-29T03:35:17.071Z,264.19
2023-07-29T03:36:17.068Z,264.83
2023-07-29T03:37:17.053Z,263.14
2023-07-29T03:38:17.025Z,264.41
2023-07-29T03:39:16.990Z,263.14
2023-07-29T03:40:17.974Z,265.26
2023-07-29T03:41:17.108Z,265.26
2023-07-29T03:42:17.020Z,263.98
2023-07-29T03:43:16.996Z,263.35
2023-07-29T03:44:16.934Z,263.56
2023-07-29T03:45:17.880Z,263.77
2023-07-29T03:46:16.932Z,264.19
2023-07-29T03:47:16.926Z,265.04
2023-07-29T03:48:16.900Z,263.98
2023-07-29T03:49:16.899Z,263.98
2023-07-29T03:50:16.914Z,265.69
2023-07-29T03:51:17.771Z,265.26
2023-07-29T03:52:16.826Z,266.11
2023-07-29T03:53:16.823Z,264.41
2023-07-29T03:54:16.798Z,263.98
2023-07-29T03:55:16.797Z,264.41
2023-07-29T03:56:17.708Z,264.62
2023-07-29T03:57:16.771Z,263.77
2023-07-29T03:58:16.763Z,265.69
2023-07-29T03:59:16.759Z,264.83
2023-07-29T04:00:16.778Z,265.26
2023-07-29T04:01:17.736Z,264.62
2023-07-29T04:02:16.751Z,266.55
2023-07-29T04:03:16.672Z,266.11
2023-07-29T04:04:16.829Z,265.69
2023-07-29T04:05:16.779Z,265.69
2023-07-29T04:06:17.973Z,264.41
2023-07-29T04:07:16.716Z,264.83
2023-07-29T04:08:16.680Z,265.04
2023-07-29T04:09:16.662Z,265.47
2023-07-29T04:10:16.684Z,266.55
2023-07-29T04:11:17.699Z,265.04
2023-07-29T04:12:16.601Z,265.26
2023-07-29T04:13:16.598Z,265.69
2023-07-29T04:14:16.618Z,265.47
2023-07-29T04:15:16.534Z,266.76
2023-07-29T04:16:16.558Z,265.69
2023-07-29T04:17:17.444Z,265.47
2023-07-29T04:18:16.530Z,265.69
2023-07-29T04:19:16.907Z,265.90
2023-07-29T04:20:16.473Z,265.90
2023-07-29T04:21:16.503Z,265.26
2023-07-29T04:22:16.530Z,265.47
2023-07-29T04:23:18.077Z,265.26
2023-07-29T04:24:16.403Z,265.69
2023-07-29T04:25:16.470Z,264.83
2023-07-29T04:26:16.397Z,264.62
2023-07-29T04:27:16.410Z,265.04
2023-07-29T04:28:16.450Z,265.04
2023-07-29T04:29:17.349Z,263.98
2023-07-29T04:30:16.421Z,263.98
2023-07-29T04:31:16.376Z,264.83
2023-07-29T04:32:16.340Z,263.77
2023-07-29T04:33:16.326Z,264.41
2023-07-29T04:34:16.307Z,263.98
2023-07-29T04:35:17.256Z,264.19
2023-07-29T04:36:16.237Z,263.56
2023-07-29T04:37:16.333Z,263.14
2023-07-29T04:38:16.241Z,264.41
2023-07-29T04:39:16.248Z,264.41
2023-07-29T04:40:16.203Z,263.14
2023-07-29T04:41:17.187Z,263.35
2023-07-29T04:42:16.168Z,262.93
2023-07-29T04:43:16.166Z,263.35
2023-07-29T04:44:16.227Z,264.19
2023-07-29T04:45:16.242Z,263.14
2023-07-29T04:46:17.184Z,262.72
2023-07-29T04:47:16.135Z,262.30
2023-07-29T04:48:16.107Z,262.30
2023-07-29T04:49:16.105Z,262.30
2023-07-29T04:50:16.099Z,262.30
2023-07-29T04:51:17.029Z,262.93
2023-07-29T04:52:16.132Z,263.35
2023-07-29T04:53:16.034Z,262.72
2023-07-29T04:54:16.003Z,263.35
2023-07-29T04:55:16.013Z,263.77
2023-07-29T04:56:18.410Z,263.35
2023-07-29T04:57:16.954Z,262.93
2023-07-29T04:58:16.037Z,263.56
2023-07-29T04:59:15.978Z,264.41
2023-07-29T05:00:15.960Z,263.56
2023-07-29T05:01:16.001Z,263.98
2023-07-29T05:02:16.886Z,263.77
2023-07-29T05:03:15.891Z,263.77
2023-07-29T05:04:15.927Z,264.41
2023-07-29T05:05:15.860Z,264.41
2023-07-29T05:06:15.867Z,264.62
2023-07-29T05:07:16.843Z,263.77
2023-07-29T05:08:15.839Z,265.69
2023-07-29T05:09:15.867Z,264.62
2023-07-29T05:10:15.796Z,264.19
2023-07-29T05:11:15.780Z,265.90
2023-07-29T05:12:16.709Z,265.04
2023-07-29T05:13:15.822Z,264.41
2023-07-29T05:14:15.790Z,266.55
2023-07-29T05:15:15.769Z,266.76
2023-07-29T05:16:15.802Z,265.69
2023-07-29T05:17:15.741Z,266.55
2023-07-29T05:18:16.637Z,266.11
2023-07-29T05:19:15.707Z,266.55
2023-07-29T05:20:15.746Z,266.98
2023-07-29T05:21:15.695Z,266.98
2023-07-29T05:22:15.658Z,267.20
2023-07-29T05:23:16.565Z,265.26
2023-07-29T05:24:15.663Z,266.76
2023-07-29T05:25:15.632Z,266.55
2023-07-29T05:26:15.680Z,267.63
2023-07-29T05:27:15.687Z,266.76
2023-07-29T05:28:15.620Z,267.63
2023-07-29T05:29:16.521Z,266.98
2023-07-29T05:30:15.621Z,265.90
2023-07-29T05:31:15.697Z,265.47
2023-07-29T05:32:15.578Z,266.55
2023-07-29T05:33:15.598Z,265.69
2023-07-29T05:34:16.653Z,265.69
2023-07-29T05:35:15.488Z,265.69
2023-07-29T05:36:15.471Z,265.69
2023-07-29T05:37:15.472Z,265.26
2023-07-29T05:38:15.470Z,265.69
2023-07-29T05:39:15.468Z,265.69
2023-07-29T05:40:16.385Z,265.26
2023-07-29T05:41:15.554Z,265.26
2023-07-29T05:42:15.385Z,265.04
2023-07-29T05:43:15.425Z,266.11
2023-07-29T05:44:15.404Z,264.83
2023-07-29T05:45:15.386Z,266.33
2023-07-29T05:46:16.288Z,265.90
2023-07-29T05:47:16.800Z,265.90
2023-07-29T05:48:15.549Z,264.83
2023-07-29T05:49:15.312Z,265.90
2023-07-29T05:50:15.313Z,265.69
2023-07-29T05:51:15.307Z,264.41
2023-07-29T05:52:16.220Z,265.26
2023-07-29T05:53:15.236Z,264.41
2023-07-29T05:54:15.242Z,265.26
2023-07-29T05:55:16.020Z,264.19
2023-07-29T05:56:15.242Z,265.69
2023-07-29T05:57:15.242Z,263.98
2023-07-29T05:58:16.132Z,265.69
2023-07-29T05:59:15.235Z,265.04
2023-07-29T06:00:15.228Z,265.26
2023-07-29T06:01:15.250Z,264.19
2023-07-29T06:02:15.136Z,264.41
2023-07-29T06:03:16.137Z,265.26
2023-07-29T06:04:15.123Z,263.98
2023-07-29T06:05:15.097Z,264.83
2023-07-29T06:06:15.120Z,263.77
2023-07-29T06:07:15.135Z,264.62
2023-07-29T06:08:15.991Z,263.98
2023-07-29T06:09:15.050Z,264.41
2023-07-29T06:10:15.042Z,263.98
2023-07-29T06:11:15.083Z,263.14
2023-07-29T06:12:15.109Z,263.35
2023-07-29T06:13:15.989Z,263.14
2023-07-29T06:14:15.004Z,262.09
2023-07-29T06:15:15.004Z,262.30
2023-07-29T06:16:15.063Z,261.05
2023-07-29T06:17:15.046Z,261.05
2023-07-29T06:18:14.934Z,261.67
2023-07-29T06:19:16.130Z,260.23
2023-07-29T06:20:14.954Z,259.61
2023-07-29T06:21:14.911Z,259.41
2023-07-29T06:22:14.854Z,259.41
2023-07-29T06:23:14.856Z,259.00
2023-07-29T06:24:15.837Z,258.39
2023-07-29T06:25:14.903Z,257.38
2023-07-29T06:26:14.941Z,257.38
2023-07-29T06:27:14.805Z,256.78
2023-07-29T06:28:14.888Z,256.58
2023-07-29T06:29:16.472Z,255.78
2023-07-29T06:30:14.783Z,255.98
2023-07-29T06:31:14.850Z,255.38
2023-07-29T06:32:14.745Z,255.19
2023-07-29T06:33:14.750Z,256.18
2023-07-29T06:34:15.710Z,254.20
2023-07-29T06:35:14.755Z,254.20
2023-07-29T06:36:14.695Z,254.79
2023-07-29T06:37:14.774Z,254.20
2023-07-29T06:38:14.728Z,255.58
2023-07-29T06:39:15.650Z,254.40
2023-07-29T06:40:14.659Z,255.58
2023-07-29T06:41:16.444Z,254.60
2023-07-29T06:42:14.627Z,255.58
2023-07-29T06:43:14.666Z,253.81
2023-07-29T06:44:14.587Z,253.81
2023-07-29T06:45:15.525Z,254.20
2023-07-29T06:46:14.612Z,253.23
2023-07-29T06:47:14.603Z,253.81
2023-07-29T06:48:14.573Z,254.99
2023-07-29T06:49:14.549Z,254.99
2023-07-29T06:50:15.510Z,253.62
2023-07-29T06:51:14.540Z,252.84
2023-07-29T06:52:14.496Z,253.42
2023-07-29T06:53:14.504Z,253.03
2023-07-29T06:54:14.467Z,253.81
2023-07-29T06:55:14.498Z,252.26
2023-07-29T06:56:15.420Z,252.26
2023-07-29T06:57:14.428Z,252.26
2023-07-29T06:58:14.435Z,251.48
2023-07-29T06:59:14.428Z,251.87
2023-07-29T07:00:14.476Z,252.64
2023-07-29T07:01:15.370Z,251.68
2023-07-29T07:02:14.453Z,250.91
2023-07-29T07:03:14.415Z,250.91
2023-07-29T07:04:14.360Z,250.91
2023-07-29T07:05:14.367Z,250.53
2023-07-29T07:06:14.350Z,249.96
2023-07-29T07:07:15.309Z,248.82
2023-07-29T07:08:14.295Z,249.58
2023-07-29T07:09:14.297Z,248.82
2023-07-29T07:10:14.293Z,248.82
2023-07-29T07:11:14.276Z,247.70
2023-07-29T07:12:14.262Z,247.70
2023-07-29T07:13:15.195Z,246.40
2023-07-29T07:14:14.196Z,247.14
2023-07-29T07:15:14.271Z,247.70
2023-07-29T07:16:14.236Z,246.04
2023-07-29T07:17:14.170Z,245.85
2023-07-29T07:18:15.091Z,247.33
2023-07-29T07:19:14.160Z,245.67
2023-07-29T07:20:14.222Z,245.85
2023-07-29T07:21:14.138Z,246.40
2023-07-29T07:22:14.122Z,245.49
2023-07-29T07:23:15.103Z,246.59
2023-07-29T07:24:14.109Z,246.59
2023-07-29T07:25:14.086Z,245.49
2023-07-29T07:26:14.125Z,246.96
2023-07-29T07:27:14.052Z,245.30
2023-07-29T07:28:15.251Z,245.12
2023-07-29T07:29:14.047Z,246.40
2023-07-29T07:30:14.023Z,244.57
2023-07-29T07:31:14.093Z,245.12
2023-07-29T07:32:13.967Z,243.67
2023-07-29T07:33:13.973Z,243.13
2023-07-29T07:34:14.930Z,242.77
2023-07-29T07:35:13.954Z,240.99
2023-07-29T07:36:13.970Z,242.24
2023-07-29T07:37:13.933Z,241.70
2023-07-29T07:38:13.925Z,242.06
2023-07-29T07:39:14.836Z,241.88
2023-07-29T07:40:13.897Z,240.12
2023-07-29T07:41:13.886Z,239.42
2023-07-29T07:42:13.851Z,240.47
2023-07-29T07:43:13.845Z,239.07
2023-07-29T07:44:14.737Z,238.72
2023-07-29T07:45:14.767Z,238.21
2023-07-29T07:46:13.894Z,237.52
2023-07-29T07:47:13.783Z,238.03
2023-07-29T07:48:13.761Z,236.16
2023-07-29T07:49:13.768Z,237.18
2023-07-29T07:50:13.744Z,236.67
2023-07-29T07:51:14.706Z,235.65
2023-07-29T07:52:13.737Z,234.98
2023-07-29T07:53:13.723Z,233.48
2023-07-29T07:54:13.798Z,234.14
2023-07-29T07:55:13.676Z,231.67
2023-07-29T07:56:13.766Z,232.49
2023-07-29T07:57:14.633Z,232.16
2023-07-29T07:58:13.673Z,230.21
2023-07-29T07:59:16.066Z,229.41
2023-07-29T08:00:13.627Z,228.93
2023-07-29T08:01:13.610Z,228.14
2023-07-29T08:02:13.701Z,226.73
2023-07-29T08:03:14.709Z,225.18
2023-07-29T08:04:13.560Z,226.41
2023-07-29T08:05:13.581Z,227.04
2023-07-29T08:06:13.539Z,224.10
2023-07-29T08:07:13.528Z,221.99
2023-07-29T08:08:14.497Z,222.89
2023-07-29T08:09:13.563Z,223.04
2023-07-29T08:10:13.556Z,222.74
2023-07-29T08:11:13.551Z,221.84
2023-07-29T08:12:13.555Z,220.21
2023-07-29T08:13:13.465Z,220.80
2023-07-29T08:14:19.678Z,216.73
2023-07-29T08:15:13.438Z,216.30
2023-07-29T08:16:13.465Z,218.02
2023-07-29T08:17:13.454Z,215.46
2023-07-29T08:18:13.386Z,214.75
2023-07-29T08:19:22.461Z,214.19
2023-07-29T08:20:13.359Z,214.05
2023-07-29T08:21:13.417Z,215.03
2023-07-29T08:22:13.329Z,213.36
2023-07-29T08:23:13.339Z,216.30
2023-07-29T08:24:14.460Z,212.54
2023-07-29T08:25:13.294Z,213.50
2023-07-29T08:26:13.299Z,213.09
2023-07-29T08:27:13.275Z,213.91
2023-07-29T08:28:13.306Z,213.36
2023-07-29T08:29:14.199Z,215.60
2023-07-29T08:30:13.225Z,212.40
2023-07-29T08:31:13.263Z,212.81
2023-07-29T08:32:13.243Z,213.09
2023-07-29T08:33:13.273Z,211.85
2023-07-29T08:34:13.230Z,212.67
2023-07-29T08:35:14.205Z,213.36
2023-07-29T08:36:13.158Z,213.22
2023-07-29T08:37:13.155Z,211.85
2023-07-29T08:38:13.153Z,212.12
2023-07-29T08:39:13.189Z,213.36
2023-07-29T08:40:14.120Z,211.85
2023-07-29T08:41:13.083Z,212.81
2023-07-29T08:42:13.140Z,211.85
2023-07-29T08:43:13.065Z,211.85
2023-07-29T08:44:13.467Z,212.67
2023-07-29T08:45:13.081Z,212.40
2023-07-29T08:46:19.270Z,211.85
2023-07-29T08:47:13.096Z,212.40
2023-07-29T08:48:12.987Z,211.31
2023-07-29T08:49:13.000Z,212.26
2023-07-29T08:50:15.315Z,211.99
2023-07-29T08:51:12.977Z,212.26
2023-07-29T08:52:13.923Z,211.85
2023-07-29T08:53:12.946Z,211.71
2023-07-29T08:54:12.938Z,211.99
2023-07-29T08:55:12.885Z,212.54
2023-07-29T08:56:12.988Z,213.36
2023-07-29T08:57:13.862Z,212.67
2023-07-29T08:58:12.929Z,213.22
2023-07-29T08:59:12.963Z,213.64
2023-07-29T09:00:12.881Z,213.09
2023-07-29T09:01:12.849Z,211.99
2023-07-29T09:02:13.909Z,213.09
2023-07-29T09:03:12.922Z,213.22
2023-07-29T09:04:12.815Z,212.95
2023-07-29T09:05:12.799Z,212.95
2023-07-29T09:06:12.765Z,212.95
2023-07-29T09:07:13.748Z,212.40
2023-07-29T09:08:12.806Z,212.12
2023-07-29T09:09:12.725Z,211.44
2023-07-29T09:10:12.756Z,211.71
2023-07-29T09:11:12.697Z,209.96
2023-07-29T09:12:12.685Z,211.99
2023-07-29T09:13:13.705Z,210.09
2023-07-29T09:14:12.678Z,212.40
2023-07-29T09:15:12.664Z,209.69
2023-07-29T09:16:12.666Z,210.36
2023-07-29T09:17:12.757Z,209.83
2023-07-29T09:18:13.671Z,209.03
2023-07-29T09:19:12.592Z,209.03
2023-07-29T09:20:12.614Z,209.16
2023-07-29T09:21:12.597Z,208.10
2023-07-29T09:22:12.571Z,209.03
2023-07-29T09:23:18.809Z,208.90
2023-07-29T09:24:12.530Z,210.63
2023-07-29T09:25:12.553Z,207.97
2023-07-29T09:26:12.635Z,209.83
2023-07-29T09:27:12.510Z,209.16
2023-07-29T09:28:12.553Z,209.29
2023-07-29T09:29:13.522Z,208.50
2023-07-29T09:30:12.445Z,208.63
2023-07-29T09:31:12.533Z,208.24
2023-07-29T09:32:12.492Z,209.03
2023-07-29T09:33:12.542Z,207.97
2023-07-29T09:34:18.665Z,207.06
2023-07-29T09:35:12.461Z,206.41
2023-07-29T09:36:12.423Z,205.12
2023-07-29T09:37:12.374Z,204.74
2023-07-29T09:38:12.400Z,204.74
2023-07-29T09:39:12.373Z,205.25
2023-07-29T09:40:13.292Z,204.23
2023-07-29T09:41:12.304Z,203.60
2023-07-29T09:42:12.335Z,203.47
2023-07-29T09:43:12.300Z,203.22
2023-07-29T09:44:12.333Z,204.61
2023-07-29T09:45:13.252Z,203.35
2023-07-29T09:46:12.302Z,203.60
2023-07-29T09:47:12.267Z,203.10
2023-07-29T09:48:13.203Z,202.60
2023-07-29T09:49:12.224Z,202.85
2023-07-29T09:50:12.239Z,202.47
2023-07-29T09:51:13.189Z,203.35
2023-07-29T09:52:12.160Z,201.98
2023-07-29T09:53:12.143Z,202.47
2023-07-29T09:54:12.152Z,202.47
2023-07-29T09:55:12.194Z,201.61
2023-07-29T09:56:13.117Z,202.35
2023-07-29T09:57:12.211Z,201.73
2023-07-29T09:58:12.179Z,201.61
2023-07-29T09:59:12.173Z,200.26
2023-07-29T10:00:12.091Z,200.87
2023-07-29T10:01:12.118Z,201.36
2023-07-29T10:02:18.463Z,200.99
2023-07-29T10:03:12.181Z,201.36
2023-07-29T10:04:13.795Z,200.26
2023-07-29T10:05:11.998Z,198.69
2023-07-29T10:06:12.016Z,199.17
2023-07-29T10:07:12.035Z,198.45
2023-07-29T10:08:18.258Z,197.73
2023-07-29T10:09:11.960Z,198.69
2023-07-29T10:10:12.013Z,198.21
2023-07-29T10:11:11.953Z,197.85
2023-07-29T10:12:11.949Z,198.45
2023-07-29T10:13:12.905Z,197.02
2023-07-29T10:14:11.891Z,195.50
2023-07-29T10:15:11.888Z,196.67
2023-07-29T10:16:11.947Z,195.27
2023-07-29T10:17:11.859Z,195.62
2023-07-29T10:18:13.015Z,195.39
2023-07-29T10:19:11.913Z,196.09
2023-07-29T10:20:11.841Z,196.32
2023-07-29T10:21:11.813Z,194.35
2023-07-29T10:22:11.800Z,194.58
2023-07-29T10:23:12.810Z,193.44
2023-07-29T10:24:11.785Z,194.81
2023-07-29T10:25:11.759Z,193.10
2023-07-29T10:26:11.785Z,193.89
2023-07-29T10:27:12.767Z,193.10
2023-07-29T10:28:11.744Z,193.44
2023-07-29T10:29:12.748Z,193.21
2023-07-29T10:30:11.739Z,193.55
2023-07-29T10:31:11.681Z,193.10
2023-07-29T10:32:11.661Z,192.42
2023-07-29T10:33:11.867Z,191.86
2023-07-29T10:34:12.714Z,192.53
2023-07-29T10:35:11.699Z,190.86
2023-07-29T10:36:11.676Z,191.52
2023-07-29T10:37:11.609Z,191.63
2023-07-29T10:38:11.636Z,189.87
2023-07-29T10:39:11.606Z,190.09
2023-07-29T10:40:12.617Z,189.21
2023-07-29T10:41:11.571Z,189.87
2023-07-29T10:42:11.591Z,189.65
2023-07-29T10:43:11.642Z,189.76
2023-07-29T10:44:11.546Z,188.24
2023-07-29T10:45:17.819Z,189.32
2023-07-29T10:46:16.326Z,189.21
2023-07-29T10:47:13.093Z,189.43
2023-07-29T10:48:11.540Z,188.46
2023-07-29T10:49:11.505Z,188.02
2023-07-29T10:50:11.529Z,188.78
2023-07-29T10:51:12.466Z,189.00
2023-07-29T10:52:11.445Z,188.89
2023-07-29T10:53:11.464Z,188.78
2023-07-29T10:54:11.457Z,188.78
2023-07-29T10:55:11.436Z,189.98
2023-07-29T10:56:12.094Z,189.43
2023-07-29T10:57:17.656Z,189.10
2023-07-29T10:58:11.419Z,189.10
2023-07-29T10:59:11.362Z,189.76
2023-07-29T11:00:11.337Z,190.64
2023-07-29T11:01:11.366Z,187.60
2023-07-29T11:02:17.574Z,189.21
2023-07-29T11:03:11.413Z,188.46
2023-07-29T11:04:11.358Z,189.65
2023-07-29T11:05:11.328Z,189.87
2023-07-29T11:06:12.214Z,190.53
2023-07-29T11:07:12.229Z,190.64
2023-07-29T11:08:11.348Z,191.41
2023-07-29T11:09:11.255Z,192.31
2023-07-29T11:10:11.242Z,193.10
2023-07-29T11:13:46.353Z,356.59
2023-07-29T11:14:07.548Z,304.50
2023-07-29T11:15:07.506Z,279.20
2023-07-29T11:16:07.855Z,265.04
2023-07-29T11:17:08.747Z,255.98
2023-07-29T11:18:13.767Z,249.20
2023-07-29T11:19:07.473Z,246.22
2023-07-29T11:20:07.561Z,243.67
2023-07-29T11:21:07.403Z,242.95
2023-07-29T11:22:07.404Z,242.06
2023-07-29T11:23:08.436Z,241.88
2023-07-29T11:24:07.417Z,241.52
2023-07-29T11:25:07.377Z,240.82
2023-07-29T11:26:07.546Z,241.35
2023-07-29T11:27:07.376Z,240.47
2023-07-29T11:28:13.795Z,240.47
2023-07-29T11:29:07.313Z,240.47
2023-07-29T11:30:07.305Z,240.82
2023-07-29T11:31:07.720Z,240.82
2023-07-29T11:32:07.273Z,242.77
2023-07-29T11:33:08.378Z,242.06
2023-07-29T11:34:07.249Z,242.77
2023-07-29T11:35:07.249Z,243.67
2023-07-29T11:36:07.373Z,244.03
2023-07-29T11:37:07.225Z,245.12
2023-07-29T11:38:13.460Z,244.57
2023-07-29T11:39:07.353Z,244.39
2023-07-29T11:40:07.164Z,245.67
2023-07-29T11:41:07.133Z,245.30
2023-07-29T11:42:07.165Z,245.30
2023-07-29T11:43:13.390Z,246.04
2023-07-29T11:44:07.104Z,245.30
2023-07-29T11:45:07.150Z,244.94
2023-07-29T11:46:07.219Z,245.67
2023-07-29T11:47:07.086Z,246.22
2023-07-29T11:48:08.056Z,246.40
2023-07-29T11:49:07.200Z,246.96
2023-07-29T11:50:07.040Z,247.14
2023-07-29T11:51:07.042Z,247.33
2023-07-29T11:52:07.058Z,246.59
2023-07-29T11:53:07.955Z,247.51
2023-07-29T11:54:07.033Z,247.70
2023-07-29T11:55:06.975Z,248.45
2023-07-29T11:56:06.932Z,247.70
2023-07-29T11:57:07.016Z,247.70
2023-07-29T11:58:13.231Z,247.33
2023-07-29T11:59:06.899Z,247.51
2023-07-29T12:00:06.905Z,246.96
2023-07-29T12:01:06.937Z,247.51
2023-07-29T12:02:06.875Z,246.96
2023-07-29T12:03:07.042Z,245.30
2023-07-29T12:04:13.157Z,247.14
2023-07-29T12:05:06.843Z,246.59
2023-07-29T12:06:07.034Z,246.77
2023-07-29T12:07:06.826Z,247.14
2023-07-29T12:08:06.805Z,246.40
2023-07-29T12:09:07.045Z,246.59
2023-07-29T12:10:13.134Z,244.21
2023-07-29T12:11:06.790Z,245.30
2023-07-29T12:12:06.794Z,244.39
2023-07-29T12:13:06.837Z,245.49
2023-07-29T12:14:06.748Z,244.94
2023-07-29T12:15:07.722Z,244.03
2023-07-29T12:16:06.947Z,244.76
2023-07-29T12:17:06.747Z,243.31
2023-07-29T12:18:06.787Z,243.49
2023-07-29T12:19:06.870Z,244.21
2023-07-29T12:20:12.944Z,242.77
2023-07-29T12:21:06.678Z,243.85
2023-07-29T12:22:06.667Z,244.21
2023-07-29T12:23:06.591Z,243.31
2023-07-29T12:24:06.613Z,242.41
2023-07-29T12:25:06.658Z,242.59
2023-07-29T12:26:12.813Z,242.41
2023-07-29T12:27:06.560Z,241.70
2023-07-29T12:28:06.625Z,240.64
2023-07-29T12:29:08.473Z,240.47
2023-07-29T12:30:06.640Z,240.64
2023-07-29T12:31:06.568Z,241.17
2023-07-29T12:32:07.461Z,241.17
2023-07-29T12:33:06.574Z,240.82